Time;durP1;ratioP1;P1;durP2;ratioP2;P2;SDS_P1;SDS_P2;PMS_P1;PMS_P2;Temp;Humidity;BMP_temperature;BMP_pressure;BME280_temperature;BME280_humidity;BME280_pressure;Samples;Min_cycle;Max_cycle;Signal;HPM_P1;HPM_P2
2024/03/19 00:00:53;;;;;;;5.00;3.08;;;0.40;99.90;;;-1.18;80.20;101891.84;4905452;28;20045;-79
2024/03/19 00:03:19;;;;;;;2.95;1.38;;;0.40;99.90;;;-1.21;79.90;101902.97;4902321;28;20047;-78
2024/03/19 00:05:44;;;;;;;8.40;3.03;;;0.40;99.90;;;-1.24;79.82;101902.91;4894732;28;20059;-77
2024/03/19 00:08:18;;;;;;;4.15;1.40;;;0.30;99.90;;;-1.28;79.81;101894.22;4908042;28;20031;-79
2024/03/19 00:10:43;;;;;;;5.43;2.55;;;0.30;99.90;;;-1.33;79.88;101888.09;4915434;28;20407;-78
2024/03/19 00:13:09;;;;;;;7.20;2.75;;;0.30;99.90;;;-1.35;80.11;101900.09;4888017;28;20045;-79
2024/03/19 00:15:35;;;;;;;6.57;2.75;;;0.20;99.90;;;-1.37;79.81;101903.50;4939060;28;20522;-77
2024/03/19 00:18:01;;;;;;;90.10;29.20;;;0.20;99.90;;;-1.38;80.15;101896.56;4929736;28;20410;-78
2024/03/19 00:20:32;;;;;;;162.52;46.25;;;0.20;99.90;;;-1.39;80.31;101903.47;4912632;28;20078;-78
2024/03/19 00:22:58;;;;;;;4.55;2.17;;;0.20;99.90;;;-1.42;79.76;101897.38;4911548;28;20050;-77
2024/03/19 00:25:24;;;;;;;5.70;2.05;;;0.20;99.90;;;-1.44;80.34;101910.25;4926647;28;20109;-80
2024/03/19 00:27:50;;;;;;;5.15;1.60;;;0.10;99.90;;;-1.49;80.27;101902.41;4877137;28;20130;-79
2024/03/19 00:30:16;;;;;;;2.05;1.20;;;0.10;99.90;;;-1.52;79.63;101902.31;4921587;28;20413;-78
2024/03/19 00:32:41;;;;;;;3.00;1.40;;;0.10;99.90;;;-1.53;80.21;101898.00;4912792;28;20063;-79
2024/03/19 00:35:13;;;;;;;3.85;1.50;;;0.10;99.90;;;-1.57;80.38;101903.94;4898620;28;20114;-77
2024/03/19 00:37:42;;;;;;;14.80;3.35;;;0.00;99.90;;;-1.62;79.94;101886.59;4908794;28;20033;-77
2024/03/19 00:40:12;;;;;;;9.55;2.85;;;0.00;99.90;;;-1.66;80.42;101890.84;4914625;28;20033;-78
2024/03/19 00:42:41;;;;;;;8.27;3.28;;;0.00;99.90;;;-1.69;80.22;101895.91;4909845;28;20043;-77
2024/03/19 00:45:08;;;;;;;12.25;3.15;;;-0.10;99.90;;;-1.73;80.50;101891.50;4921635;28;20038;-77
2024/03/19 00:47:35;;;;;;;5.43;2.40;;;-0.10;99.90;;;-1.76;80.69;101891.47;4898076;28;20612;-78
2024/03/19 00:50:01;;;;;;;9.50;2.65;;;-0.10;99.90;;;-1.78;80.79;101887.97;4905813;28;20043;-79
2024/03/19 00:52:32;;;;;;;11.30;2.67;;;-0.20;99.90;;;-1.79;81.15;101899.13;4905496;28;20449;-77
2024/03/19 00:54:57;;;;;;;29.10;7.57;;;-0.20;99.90;;;-1.81;80.76;101898.22;4900937;28;20036;-77
2024/03/19 00:57:23;;;;;;;6.28;2.38;;;-0.20;99.90;;;-1.82;81.06;101896.47;4907181;28;20501;-78
2024/03/19 00:59:49;;;;;;;5.10;1.48;;;-0.20;99.90;;;-1.84;81.53;101891.28;4932991;28;20490;-78
2024/03/19 01:02:16;;;;;;;3.90;1.40;;;-0.20;99.90;;;-1.84;81.08;101895.56;4919445;28;20074;-77
2024/03/19 01:04:48;;;;;;;2.85;1.55;;;-0.30;99.90;;;-1.86;81.61;101898.09;4900805;28;20063;-78
2024/03/19 01:07:15;;;;;;;2.95;1.33;;;-0.30;99.90;;;-1.90;81.86;101896.28;4888227;28;20042;-79
2024/03/19 01:09:41;;;;;;;3.38;1.33;;;-0.30;99.90;;;-1.92;81.61;101893.69;4889638;28;20050;-79
2024/03/19 01:12:08;;;;;;;5.00;1.95;;;-0.30;99.90;;;-1.95;81.40;101891.03;4901377;28;20047;-77
2024/03/19 01:14:36;;;;;;;5.10;1.52;;;-0.30;99.90;;;-1.97;81.71;101884.09;4908467;28;20028;-77
2024/03/19 01:17:04;;;;;;;4.90;1.60;;;-0.40;99.90;;;-2.00;81.71;101892.63;4911591;28;20044;-78
2024/03/19 01:19:30;;;;;;;4.60;1.80;;;-0.40;99.90;;;-2.02;81.53;101889.16;4930115;28;20023;-78
2024/03/19 01:21:56;;;;;;;6.05;1.63;;;-0.40;99.90;;;-2.04;81.87;101895.97;4885361;28;20035;-77
2024/03/19 01:24:23;;;;;;;5.50;1.73;;;-0.40;99.90;;;-2.06;81.57;101892.47;4908023;28;20035;-77
2024/03/19 01:26:49;;;;;;;3.85;1.90;;;-0.40;99.90;;;-2.07;82.26;101890.75;4910536;28;20117;-78
2024/03/19 01:29:17;;;;;;;3.20;1.80;;;-0.50;99.90;;;-2.11;82.02;101884.63;4897219;28;20494;-77
2024/03/19 01:31:45;;;;;;;3.95;1.70;;;-0.50;99.90;;;-2.14;81.97;101883.69;4886546;28;20457;-77
2024/03/19 01:34:11;;;;;;;3.50;1.52;;;-0.50;99.90;;;-2.17;82.05;101888.78;4929106;28;20516;-77
2024/03/19 01:36:37;;;;;;;5.90;1.88;;;-0.50;99.90;;;-2.20;82.17;101889.59;4872203;28;20035;-78
2024/03/19 01:39:03;;;;;;;2.50;1.58;;;-0.50;99.90;;;-2.22;82.41;101890.38;4924686;28;20099;-77
2024/03/19 01:41:29;;;;;;;7.90;2.50;;;-0.60;99.90;;;-2.25;82.11;101882.56;4890925;28;20046;-77
2024/03/19 01:43:57;;;;;;;6.88;1.85;;;-0.60;99.90;;;-2.27;82.46;101885.09;4923824;28;20418;-79
2024/03/19 01:46:29;;;;;;;3.50;1.80;;;-0.60;99.90;;;-2.30;82.16;101883.31;4912598;28;20051;-77
2024/03/19 01:48:56;;;;;;;4.63;1.83;;;-0.60;99.90;;;-2.31;82.40;101886.75;4900710;28;20053;-78
2024/03/19 01:51:31;;;;;;;4.57;1.90;;;-0.70;99.90;;;-2.34;83.03;101884.06;4900416;28;20054;-77
2024/03/19 01:53:58;;;;;;;3.22;1.80;;;-0.70;99.90;;;-2.34;83.14;101894.38;4891733;28;20028;-77
2024/03/19 01:56:25;;;;;;;3.83;2.00;;;-0.70;99.90;;;-2.37;82.77;101886.59;4881340;28;20047;-79
2024/03/19 01:58:56;;;;;;;5.57;2.47;;;-0.70;99.90;;;-2.40;83.05;101880.47;4914826;28;20089;-78
2024/03/19 02:01:23;;;;;;;6.55;2.45;;;-0.80;99.90;;;-2.41;83.13;101876.16;4914495;28;20040;-78
2024/03/19 02:03:49;;;;;;;5.70;2.25;;;-0.80;99.90;;;-2.45;83.01;101876.91;4894738;28;20127;-77
2024/03/19 02:06:16;;;;;;;5.88;1.98;;;-0.80;99.90;;;-2.47;83.15;101874.28;4923411;28;20119;-77
2024/03/19 02:09:08;;;;;;;6.05;2.20;;;-0.80;99.90;;;-2.47;83.29;101876.84;4899680;28;20159;-78
2024/03/19 02:11:35;;;;;;;5.53;2.30;;;-0.80;99.90;;;-2.51;83.25;101875.91;4897076;28;20042;-78
2024/03/19 02:14:11;;;;;;;2.97;2.08;;;-0.80;99.90;;;-2.50;83.38;101866.47;4899630;28;20043;-78
2024/03/19 02:16:37;;;;;;;5.47;2.05;;;-0.90;99.90;;;-2.51;83.18;101865.56;4887031;28;20562;-77
2024/03/19 02:19:05;;;;;;;5.32;2.28;;;-0.80;99.90;;;-2.51;83.55;101862.13;4875252;28;20059;-77
2024/03/19 02:21:34;;;;;;;8.95;2.90;;;-0.80;99.90;;;-2.49;83.42;101865.63;4893053;28;20046;-77
2024/03/19 02:24:02;;;;;;;4.82;2.30;;;-0.80;99.90;;;-2.49;83.77;101863.91;4870997;28;20388;-78
2024/03/19 02:26:31;;;;;;;5.35;2.33;;;-0.80;99.90;;;-2.48;84.05;101867.38;4888142;28;20529;-78
2024/03/19 02:28:58;;;;;;;5.82;2.92;;;-0.80;99.90;;;-2.48;84.00;101862.22;4898019;28;20051;-77
2024/03/19 02:31:27;;;;;;;6.70;2.85;;;-0.90;99.90;;;-2.48;84.14;101867.38;4883199;28;20506;-78
2024/03/19 02:33:56;;;;;;;8.68;2.90;;;-0.80;99.90;;;-2.45;83.97;101871.75;4900954;28;20179;-78
2024/03/19 02:36:23;;;;;;;9.18;3.70;;;-0.80;99.90;;;-2.47;84.13;101867.41;4892295;28;20515;-79
2024/03/19 02:38:49;;;;;;;6.13;2.90;;;-0.80;99.90;;;-2.45;84.15;101864.00;4896311;28;20044;-78
2024/03/19 02:41:22;;;;;;;15.60;3.35;;;-0.80;99.90;;;-2.46;83.95;101863.16;4899148;28;20038;-77
2024/03/19 02:43:48;;;;;;;9.93;3.22;;;-0.80;99.90;;;-2.47;84.52;101858.81;4877248;28;20044;-77
2024/03/19 02:46:14;;;;;;;14.60;3.80;;;-0.80;99.90;;;-2.48;84.78;101867.38;4879216;28;20091;-79
2024/03/19 02:48:40;;;;;;;16.73;5.57;;;-0.80;99.90;;;-2.49;84.21;101863.03;4904944;28;20071;-78
2024/03/19 02:51:05;;;;;;;16.88;7.18;;;-0.80;99.90;;;-2.49;84.18;101868.22;4883730;28;20035;-77
2024/03/19 02:53:37;;;;;;;19.83;5.70;;;-0.80;99.90;;;-2.49;84.18;101878.53;4901559;28;20410;-77
2024/03/19 02:56:03;;;;;;;15.93;4.97;;;-0.80;99.90;;;-2.50;84.19;101877.66;4894929;28;20530;-78
2024/03/19 02:58:29;;;;;;;14.27;5.03;;;-0.90;99.90;;;-2.51;84.51;101864.72;4877348;28;20452;-77
2024/03/19 03:00:55;;;;;;;16.20;5.95;;;-0.90;99.90;;;-2.52;84.78;101878.47;4874645;28;20046;-77
2024/03/19 03:03:21;;;;;;;29.58;6.55;;;-0.90;99.90;;;-2.53;84.42;101877.59;4883916;28;20028;-78
2024/03/19 03:05:54;;;;;;;24.92;5.97;;;-0.90;99.90;;;-2.53;84.75;101874.13;4926194;28;20071;-77
2024/03/19 03:08:20;;;;;;;19.48;5.68;;;-0.90;99.90;;;-2.53;84.91;101868.97;4919973;28;20447;-78
2024/03/19 03:10:47;;;;;;;19.88;5.05;;;-0.90;99.90;;;-2.53;85.01;101868.97;4886225;28;20079;-77
2024/03/19 03:13:13;;;;;;;22.17;5.95;;;-0.90;99.90;;;-2.53;84.78;101872.44;4907349;28;20125;-78
2024/03/19 03:15:48;;;;;;;27.13;5.45;;;-0.90;99.90;;;-2.53;84.95;101874.13;4898613;28;21382;-77
2024/03/19 03:18:14;;;;;;;24.30;5.47;;;-0.90;99.90;;;-2.53;85.26;101871.53;4901651;28;20035;-78
2024/03/19 03:20:39;;;;;;;25.67;5.00;;;-0.90;99.90;;;-2.55;85.50;101870.63;4857289;28;20042;-77
2024/03/19 03:23:05;;;;;;;22.63;5.50;;;-0.90;99.90;;;-2.57;85.57;101870.59;4878280;28;20748;-77
2024/03/19 03:25:34;;;;;;;28.55;5.40;;;-0.90;99.90;;;-2.60;85.53;101861.91;4897552;28;20036;-78
2024/03/19 03:28:00;;;;;;;23.38;6.18;;;-1.00;99.90;;;-2.63;85.37;101859.28;4845486;28;20040;-77
2024/03/19 03:30:26;;;;;;;30.98;5.50;;;-1.00;99.90;;;-2.68;85.70;101864.28;4910634;28;20041;-77
2024/03/19 03:32:52;;;;;;;36.83;6.90;;;-1.00;99.90;;;-2.73;85.56;101864.16;4914575;28;20049;-78
2024/03/19 03:35:19;;;;;;;32.10;7.47;;;-1.10;99.90;;;-2.74;85.50;101865.00;4891628;28;20044;-79
2024/03/19 03:37:46;;;;;;;34.05;6.13;;;-1.10;99.90;;;-2.73;85.72;101865.88;4871792;28;20098;-79
2024/03/19 03:40:17;;;;;;;41.88;7.75;;;-1.10;99.90;;;-2.74;85.60;101867.59;4880852;28;21013;-79
2024/03/19 03:42:48;;;;;;;49.30;8.00;;;-1.10;99.90;;;-2.75;85.94;101868.41;4881980;28;20047;-79
2024/03/19 03:45:18;;;;;;;56.55;10.55;;;-1.10;99.90;;;-2.76;85.94;101871.84;4911318;28;20413;-78
2024/03/19 03:47:44;;;;;;;58.20;9.10;;;-1.10;99.90;;;-2.77;86.01;101872.66;4886031;28;20044;-78
2024/03/19 03:50:11;;;;;;;63.05;9.40;;;-1.10;99.90;;;-2.77;86.04;101875.22;4885515;28;20036;-77
2024/03/19 03:52:38;;;;;;;73.78;10.25;;;-1.10;99.90;;;-2.76;85.88;101877.00;4915933;28;20032;-77
2024/03/19 03:55:06;;;;;;;68.22;9.88;;;-1.10;99.90;;;-2.75;85.89;101880.44;4908347;23;20115;-78
2024/03/19 03:57:36;;;;;;;63.88;10.18;;;-1.10;99.90;;;-2.78;86.29;101870.91;4885981;28;20217;-77
2024/03/19 04:00:08;;;;;;;72.72;12.40;;;-1.10;99.90;;;-2.75;86.34;101873.56;4891486;29;20032;-80
2024/03/19 04:02:36;;;;;;;73.20;11.05;;;-1.10;99.90;;;-2.76;86.63;101874.41;4894622;28;20408;-79
2024/03/19 04:05:07;;;;;;;70.05;10.85;;;-1.10;99.90;;;-2.77;86.74;101870.06;4885027;28;20032;-78
2024/03/19 04:07:39;;;;;;;76.13;10.98;;;-1.10;99.90;;;-2.79;86.90;101869.16;4892723;28;20114;-78
2024/03/19 04:10:10;;;;;;;97.22;12.45;;;-1.10;99.90;;;-2.81;86.49;101875.09;4925496;28;20043;-79
2024/03/19 04:12:36;;;;;;;100.22;12.50;;;-1.20;99.90;;;-2.83;86.95;101875.09;4905990;28;20037;-77
2024/03/19 04:15:04;;;;;;;127.18;15.15;;;-1.10;99.90;;;-2.83;86.87;101869.94;4916926;23;20043;-77
2024/03/19 04:17:35;;;;;;;117.20;14.65;;;-1.20;99.90;;;-2.83;87.26;101876.78;4872930;29;20119;-78
2024/03/19 04:20:05;;;;;;;103.35;12.88;;;-1.20;99.90;;;-2.83;87.15;101875.09;4876710;29;20035;-78
2024/03/19 04:22:43;;;;;;;115.70;15.25;;;-1.20;99.90;;;-2.83;87.21;101867.34;4918436;28;20028;-78
2024/03/19 04:25:10;;;;;;;100.68;13.38;;;-1.20;99.90;;;-2.85;87.29;101863.88;4862153;28;20106;-77
2024/03/19 04:27:36;;;;;;;130.15;14.93;;;-1.20;99.90;;;-2.85;87.59;101868.13;4924369;28;20040;-78
2024/03/19 04:30:10;;;;;;;122.57;14.65;;;-1.20;99.90;;;-2.89;87.20;101870.63;4889282;28;20118;-77
2024/03/19 04:32:36;;;;;;;139.95;16.92;;;-1.20;99.90;;;-2.92;87.82;101867.94;4921744;28;20027;-79
2024/03/19 04:35:02;;;;;;;133.80;14.38;;;-1.30;99.90;;;-2.94;87.13;101867.06;4890619;28;20035;-78
2024/03/19 04:37:28;;;;;;;130.18;16.05;;;-1.30;99.90;;;-2.95;87.58;101870.47;4904676;28;20115;-77
2024/03/19 04:40:02;;;;;;;152.20;18.33;;;-1.30;99.90;;;-2.97;87.48;101876.41;4913357;28;20039;-78
2024/03/19 04:42:29;;;;;;;143.75;18.10;;;-1.30;99.90;;;-2.97;87.24;101881.56;4889000;28;20058;-77
2024/03/19 04:44:55;;;;;;;146.73;18.30;;;-1.30;99.90;;;-2.98;87.76;101888.44;4898603;28;20039;-78
2024/03/19 04:47:20;;;;;;;151.23;18.17;;;-1.30;99.90;;;-2.99;87.85;101884.09;4908088;28;20037;-78
2024/03/19 04:49:55;;;;;;;150.48;18.10;;;-1.30;99.90;;;-2.98;87.72;101884.94;4884462;29;20043;-77
2024/03/19 04:52:21;;;;;;;162.70;18.58;;;-1.30;99.90;;;-2.96;87.57;101883.28;4897107;28;20031;-77
2024/03/19 04:54:47;;;;;;;185.38;19.13;;;-1.30;99.90;;;-2.97;88.02;101881.56;4911163;28;20521;-78
2024/03/19 04:57:12;;;;;;;145.80;18.17;;;-1.30;99.90;;;-2.96;88.11;101886.78;4898741;23;20046;-79
2024/03/19 04:59:48;;;;;;;162.95;19.13;;;-1.30;99.90;;;-2.97;88.10;101885.00;4875545;28;20043;-77
2024/03/19 05:02:14;;;;;;;147.55;18.02;;;-1.30;99.90;;;-3.00;87.60;101881.47;4887493;28;20626;-78
2024/03/19 05:04:39;;;;;;;173.63;19.67;;;-1.30;99.90;;;-3.00;87.96;101886.63;4859542;28;20617;-76
2024/03/19 05:07:05;;;;;;;164.05;19.38;;;-1.30;99.90;;;-3.04;88.31;101882.25;4850922;29;20036;-80
2024/03/19 05:09:36;;;;;;;153.93;18.23;;;-1.40;99.90;;;-3.06;87.71;101873.59;4872463;29;20044;-79
2024/03/19 05:12:03;;;;;;;165.13;18.55;;;-1.40;99.90;;;-3.08;87.82;101878.69;4870830;29;20044;-78
2024/03/19 05:14:28;;;;;;;168.45;18.20;;;-1.40;99.90;;;-3.08;87.95;101890.72;4856260;29;20072;-78
2024/03/19 05:16:54;;;;;;;151.80;19.15;;;-1.40;99.90;;;-3.09;87.87;101892.38;4876466;29;20049;-78
2024/03/19 05:19:20;;;;;;;159.82;19.23;;;-1.40;99.90;;;-3.09;88.18;101892.38;4842639;29;20044;-77
2024/03/19 05:21:48;;;;;;;130.57;19.20;;;-1.40;99.90;;;-3.08;88.26;101885.56;4856439;29;20032;-78
2024/03/19 05:24:14;;;;;;;174.23;19.30;;;;;;;-3.10;88.23;101878.63;4855133;29;20036;-78
2024/03/19 05:26:40;;;;;;;158.65;19.35;;;-1.40;99.90;;;-3.08;88.49;101882.97;4884859;29;20040;-78
2024/03/19 05:29:06;;;;;;;152.15;17.08;;;-1.40;99.90;;;-3.09;88.63;101887.22;4876973;29;20052;-77
2024/03/19 05:31:31;;;;;;;172.80;19.45;;;-1.40;99.90;;;-3.07;88.59;101884.72;4873174;29;20079;-77
2024/03/19 05:33:58;;;;;;;161.27;20.08;;;-1.40;99.90;;;-3.05;88.44;101889.06;4884948;29;20128;-77
2024/03/19 05:36:24;;;;;;;150.50;18.50;;;-1.40;99.90;;;-3.04;88.69;101884.81;4896712;23;20123;-77
2024/03/19 05:38:55;;;;;;;143.52;18.08;;;-1.40;99.90;;;-3.04;88.85;101885.69;4867417;28;20660;-78
2024/03/19 05:41:21;;;;;;;144.65;19.88;;;-1.30;99.90;;;-3.01;88.71;101880.59;4907425;28;20078;-78
2024/03/19 05:43:48;;;;;;;163.43;18.67;;;-1.30;99.90;;;-2.98;89.00;101877.22;4897971;28;20407;-77
2024/03/19 05:46:15;;;;;;;164.57;20.98;;;-1.30;99.90;;;-2.94;89.01;101876.47;4890731;28;20040;-77
2024/03/19 05:48:41;;;;;;;150.63;19.52;;;-1.30;99.90;;;-2.89;89.23;101878.38;4903753;28;20489;-77
2024/03/19 05:51:12;;;;;;;144.15;18.58;;;-1.20;99.90;;;-2.83;89.24;101881.94;4891262;28;20052;-77
2024/03/19 05:53:39;;;;;;;147.98;18.98;;;-1.10;99.90;;;-2.75;89.25;101881.28;4881967;29;20047;-77
2024/03/19 05:56:05;;;;;;;141.73;20.15;;;-1.10;99.90;;;-2.66;89.52;101887.53;4885541;28;20058;-78
2024/03/19 05:58:32;;;;;;;151.20;19.02;;;-1.00;99.90;;;-2.60;89.83;101879.97;4890410;28;20119;-79
2024/03/19 06:01:03;;;;;;;117.60;17.83;;;-0.90;99.90;;;-2.52;90.06;101886.19;4876427;28;20040;-77
2024/03/19 06:03:33;;;;;;;137.45;19.13;;;-0.80;99.90;;;-2.43;90.33;101889.00;4891001;28;20132;-77
2024/03/19 06:06:08;;;;;;;111.95;18.55;;;-0.80;99.90;;;-2.33;90.20;101890.13;4875990;28;20521;-78
2024/03/19 06:08:39;;;;;;;120.90;17.80;;;-0.70;99.90;;;-2.21;90.53;101894.69;4862222;28;20057;-78
2024/03/19 06:11:13;;;;;;;120.18;19.05;;;-0.60;99.90;;;-2.10;90.34;101903.56;4890943;28;20059;-79
2024/03/19 06:13:39;;;;;;;111.00;17.77;;;-0.50;99.90;;;-1.96;90.66;101907.34;4886441;28;20557;-78
2024/03/19 06:16:05;;;;;;;105.43;17.35;;;-0.40;99.90;;;-1.83;90.77;101915.41;4866002;28;20087;-80
2024/03/19 06:18:31;;;;;;;120.05;19.50;;;-0.20;99.90;;;-1.70;90.67;101917.44;4866830;29;20040;-78
2024/03/19 06:20:57;;;;;;;117.30;18.35;;;-0.10;99.90;;;-1.55;91.09;101916.91;4864449;28;20730;-79
2024/03/19 06:23:27;;;;;;;96.05;16.40;;;0.00;99.90;;;-1.43;90.74;101924.03;4861640;29;20048;-79
2024/03/19 06:25:53;;;;;;;100.03;17.00;;;0.10;99.90;;;-1.27;91.25;101926.13;4885480;28;20074;-79
2024/03/19 06:28:19;;;;;;;88.35;16.38;;;0.30;99.90;;;-1.17;92.11;101929.75;4848864;28;20047;-78
2024/03/19 06:30:45;;;;;;;95.68;16.85;;;0.40;99.90;;;-1.02;91.81;101929.22;4886714;28;20614;-78
2024/03/19 06:33:12;;;;;;;90.72;16.13;;;0.50;99.90;;;-0.91;92.21;101932.88;4885337;28;20032;-78
2024/03/19 06:35:45;;;;;;;80.63;15.15;;;0.60;99.90;;;-0.78;92.36;101932.28;4896247;29;20543;-79
2024/03/19 06:38:10;;;;;;;92.70;17.00;;;0.70;99.90;;;-0.64;93.31;101933.41;4887887;28;20028;-78
2024/03/19 06:40:36;;;;;;;108.80;17.98;;;0.90;99.90;;;-0.47;92.85;101940.63;4873675;29;20051;-78
2024/03/19 06:43:02;;;;;;;89.00;16.60;;;1.00;99.90;;;-0.29;92.41;101938.34;4885927;28;20647;-81
2024/03/19 06:45:29;;;;;;;96.03;16.80;;;1.20;99.90;;;-0.11;92.07;101945.59;4870066;28;20500;-78
2024/03/19 06:48:00;;;;;;;75.60;16.20;;;1.40;99.90;;;0.10;92.61;101946.78;4857118;29;20036;-80
2024/03/19 06:50:26;;;;;;;88.90;17.92;;;1.50;99.90;;;0.29;92.45;101950.53;4883945;28;20039;-78
2024/03/19 06:52:53;;;;;;;73.22;15.70;;;1.70;99.90;;;0.45;92.29;101949.88;4886628;28;20033;-79
2024/03/19 06:55:22;;;;;;;91.43;15.10;;;1.90;99.90;;;0.65;92.35;101957.97;4881791;28;20049;-79
2024/03/19 06:57:57;;;;;;;72.88;13.95;;;2.10;99.90;;;0.87;91.82;101961.72;4863675;29;20050;-79
2024/03/19 07:00:23;;;;;;;61.83;14.35;;;2.30;99.90;;;1.03;91.96;101962.78;4888253;28;20234;-79
2024/03/19 07:02:49;;;;;;;65.28;13.82;;;2.40;99.90;;;1.21;91.14;101957.81;4869530;28;21081;-79
2024/03/19 07:05:24;;;;;;;58.40;12.95;;;2.60;99.90;;;1.40;90.72;101958.00;4881117;28;20097;-80
2024/03/19 07:07:54;;;;;;;56.90;12.73;;;2.80;99.90;;;1.58;90.31;101955.63;4862838;28;20035;-78
2024/03/19 07:10:29;;;;;;;63.92;14.27;;;3.00;99.90;;;1.74;89.58;101955.78;4875647;28;20175;-78
2024/03/19 07:12:55;;;;;;;54.60;12.35;;;3.10;99.90;;;1.86;89.44;101963.69;4880398;28;20095;-79
2024/03/19 07:15:21;;;;;;;63.10;14.27;;;3.20;99.90;;;2.02;88.76;101967.28;4901963;28;20036;-79
2024/03/19 07:17:52;;;;;;;67.50;14.20;;;3.40;99.90;;;2.14;87.85;101975.19;4871560;28;20500;-79
2024/03/19 07:20:18;;;;;;;44.65;11.10;;;3.50;99.90;;;2.26;87.48;101970.06;4880032;28;20032;-79
2024/03/19 07:22:47;;;;;;;49.38;12.57;;;3.50;99.90;;;2.31;85.97;101977.03;4885844;28;20030;-81
2024/03/19 07:25:13;;;;;;;42.13;9.05;;;3.60;99.90;;;2.25;85.42;101978.75;4879875;29;20035;-81
2024/03/19 07:27:48;;;;;;;52.53;12.32;;;3.70;99.90;;;2.49;85.72;101977.19;4864169;28;20028;-79
2024/03/19 07:30:17;;;;;;;35.08;10.13;;;3.90;99.90;;;2.63;85.42;101980.72;4865485;29;20027;-81
2024/03/19 07:32:50;;;;;;;47.65;11.05;;;4.00;99.90;;;2.85;85.07;101986.94;4836673;28;20111;-81
2024/03/19 07:35:16;;;;;;;46.72;12.50;;;4.20;99.90;;;2.99;84.17;101989.59;4878438;28;20040;-80
2024/03/19 07:37:42;;;;;;;35.83;9.57;;;4.30;99.90;;;3.03;83.60;101995.72;4865666;28;20036;-81
2024/03/19 07:40:21;;;;;;;36.78;9.60;;;4.40;99.90;;;3.04;82.69;101987.88;4846479;28;20040;-81
2024/03/19 07:42:56;;;;;;;33.10;9.02;;;4.40;99.90;;;3.05;82.17;101992.25;4867647;29;20907;-78
2024/03/19 07:45:22;;;;;;;28.85;8.63;;;4.50;99.90;;;3.21;82.53;102000.13;4876514;28;20039;-77
2024/03/19 07:47:51;;;;;;;23.75;6.05;;;4.60;99.90;;;3.18;81.21;101998.38;4885671;28;20032;-77
2024/03/19 07:50:22;;;;;;;35.95;8.18;;;4.60;99.90;;;3.33;80.88;102000.19;4895292;28;20071;-78
2024/03/19 07:52:48;;;;;;;26.80;7.38;;;4.80;99.90;;;3.55;80.40;102014.13;4864039;28;20123;-78
2024/03/19 07:55:14;;;;;;;27.52;7.15;;;4.90;99.90;;;3.72;79.47;102013.31;4862672;28;20122;-77
2024/03/19 07:57:40;;;;;;;25.98;7.20;;;5.20;99.90;;;3.96;79.37;102012.50;4908646;28;20861;-77
2024/03/19 08:00:12;;;;;;;25.40;7.43;;;5.30;99.90;;;4.16;78.74;102015.97;4879376;28;20039;-78
2024/03/19 08:02:41;;;;;;;23.83;6.13;;;5.40;99.90;;;4.21;76.99;102013.38;4876355;28;20426;-77
2024/03/19 08:05:08;;;;;;;24.35;6.78;;;5.50;99.90;;;4.29;75.99;102015.09;4881943;28;20039;-78
2024/03/19 08:07:36;;;;;;;17.48;6.53;;;5.70;99.90;;;4.52;76.31;102024.66;4861838;28;20111;-79
2024/03/19 08:10:05;;;;;;;18.08;5.18;;;5.80;99.90;;;4.50;74.63;102024.66;4913010;28;20032;-79
2024/03/19 08:12:33;;;;;;;11.25;5.07;;;5.70;99.90;;;4.30;72.98;102029.91;4901605;28;20534;-77
2024/03/19 08:15:03;;;;;;;16.67;5.63;;;5.70;99.90;;;4.38;73.77;102031.63;4895552;28;20057;-78
2024/03/19 08:17:33;;;;;;;11.85;5.05;;;5.70;99.90;;;4.33;72.72;102031.63;4894640;28;20028;-79
2024/03/19 08:20:00;;;;;;;14.82;5.57;;;5.80;99.90;;;4.27;72.05;102037.69;4881619;28;20469;-77
2024/03/19 08:22:26;;;;;;;18.48;6.07;;;5.70;99.90;;;4.25;71.84;102042.03;4880055;28;20032;-78
2024/03/19 08:24:53;;;;;;;13.77;4.75;;;5.70;99.90;;;4.27;71.19;102037.69;4892295;29;20040;-79
2024/03/19 08:27:20;;;;;;;12.45;4.65;;;5.90;99.90;;;4.57;71.30;102046.41;4908096;28;20063;-78
2024/03/19 08:29:54;;;;;;;19.08;5.55;;;5.90;99.90;;;4.61;70.24;102053.34;4894978;28;20047;-79
2024/03/19 08:32:20;;;;;;;18.67;3.85;;;5.90;99.90;;;4.57;69.82;102055.97;4891626;28;20075;-78
2024/03/19 08:34:46;;;;;;;13.88;4.90;;;6.10;99.90;;;4.78;69.23;102052.47;4874206;28;20535;-79
2024/03/19 08:37:12;;;;;;;7.22;3.13;;;6.10;99.90;;;4.72;67.39;102069.88;4912122;28;20076;-78
2024/03/19 08:39:40;;;;;;;9.27;2.80;;;6.00;99.90;;;4.52;65.88;102066.41;4888540;29;20491;-78
2024/03/19 08:42:09;;;;;;;10.60;4.38;;;6.00;99.90;;;4.41;66.08;102061.19;4881290;29;20047;-77
2024/03/19 08:44:35;;;;;;;13.35;4.68;;;6.00;99.90;;;4.54;66.13;102069.03;4898834;29;20523;-79
2024/03/19 08:47:01;;;;;;;10.57;4.30;;;6.10;99.90;;;4.69;66.29;102069.88;4912222;28;23023;-77
2024/03/19 08:49:28;;;;;;;13.13;4.22;;;6.20;99.90;;;4.88;66.14;102078.56;4903959;28;20049;-78
2024/03/19 08:51:59;;;;;;;8.75;4.60;;;6.40;99.90;;;5.18;65.74;102084.56;4886191;29;20488;-79
2024/03/19 08:54:25;;;;;;;8.40;4.70;;;6.60;99.90;;;5.37;64.89;102088.00;4895777;28;20032;-79
2024/03/19 08:56:57;;;;;;;9.95;5.40;;;6.70;99.90;;;5.46;64.13;102093.19;4914135;28;20040;-78
2024/03/19 08:59:28;;;;;;;7.30;3.85;;;6.90;99.90;;;5.73;64.38;102091.38;4861121;29;20502;-79
2024/03/19 09:01:54;;;;;;;10.30;4.40;;;7.00;99.90;;;5.65;63.12;102093.13;4907936;28;20035;-79
2024/03/19 09:04:21;;;;;;;10.25;5.10;;;7.10;99.90;;;5.92;63.78;102100.84;4906342;28;20599;-80
2024/03/19 09:06:47;;;;;;;9.00;5.18;;;7.30;99.90;;;6.20;63.56;102105.06;4874800;28;20063;-78
2024/03/19 09:09:13;;;;;;;15.38;4.90;;;7.50;99.90;;;6.35;62.78;102100.63;4877285;29;20046;-79
2024/03/19 09:11:44;;;;;;;9.57;4.80;;;7.60;99.90;;;6.40;62.08;102104.97;4896008;28;20122;-79
2024/03/19 09:14:12;;;;;;;9.35;4.97;;;7.70;99.90;;;6.44;61.55;102110.16;4902078;28;20036;-80
2024/03/19 09:16:38;;;;;;;9.30;5.00;;;7.80;99.90;;;6.47;61.18;102109.25;4872190;29;20088;-78
2024/03/19 09:19:04;;;;;;;9.65;4.10;;;7.80;99.90;;;6.23;60.32;102116.38;4891806;28;20174;-81
2024/03/19 09:21:35;;;;;;;13.57;5.50;;;7.70;99.90;;;6.32;61.71;102118.94;4871892;28;20044;-81
2024/03/19 09:27:02;;;;;;;14.52;5.15;;;7.60;99.90;;;6.23;61.44;102103.31;4829931;29;20113;-78
2024/03/19 09:29:35;;;;;;;8.48;5.35;;;7.70;99.90;;;6.36;61.67;102111.94;4840470;29;20091;-78
2024/03/19 09:32:04;;;;;;;9.32;4.30;;;7.70;99.90;;;6.32;60.50;102112.84;4813404;29;20054;-78
2024/03/19 09:34:32;;;;;;;13.27;4.32;;;7.80;99.90;;;6.29;60.67;102108.50;4857534;29;20036;-78
2024/03/19 09:37:07;;;;;;;6.95;4.40;;;;;;;6.36;60.62;102104.09;4845912;29;20559;-79
2024/03/19 09:39:36;;;;;;;9.27;5.00;;;7.80;99.90;;;6.52;59.86;102115.31;4820680;29;20665;-80
2024/03/19 09:42:10;;;;;;;7.35;3.75;;;7.90;99.90;;;6.68;60.36;102114.31;4861335;29;20056;-83
2024/03/19 09:44:42;;;;;;;9.95;5.28;;;8.10;99.90;;;6.91;59.33;102118.47;4829345;29;20041;-80
2024/03/19 09:47:16;;;;;;;8.55;5.53;;;8.20;99.90;;;6.95;58.51;102114.94;4843905;29;20056;-79
2024/03/19 09:49:43;;;;;;;11.25;6.03;;;8.30;99.90;;;7.13;58.90;102117.41;4846247;29;20044;-80
2024/03/19 09:52:16;;;;;;;7.15;3.63;;;8.50;99.90;;;7.12;57.70;102120.91;4861289;29;20055;-79
2024/03/19 09:54:47;;;;;;;9.38;5.30;;;8.50;99.90;;;7.21;57.75;102124.31;4822588;29;20081;-78
2024/03/19 09:57:21;;;;;;;9.82;4.20;;;8.50;99.90;;;7.09;57.46;102115.69;4845157;29;20041;-80
2024/03/19 09:59:50;;;;;;;4.32;3.15;;;8.40;99.90;;;6.90;57.04;102122.00;4866007;29;20096;-80
2024/03/19 10:02:23;;;;;;;9.90;6.00;;;8.30;99.90;;;6.81;57.43;102117.72;4845026;29;20471;-81
2024/03/19 10:04:50;;;;;;;9.10;5.40;;;8.20;99.90;;;6.74;57.54;102114.28;4838614;28;20144;-82
2024/03/19 10:07:28;;;;;;;8.30;5.38;;;8.30;99.90;;;7.02;57.96;102123.63;4864180;29;20040;-81
2024/03/19 10:09:55;;;;;;;13.40;4.43;;;8.40;99.90;;;6.95;57.59;102128.03;4904747;29;20032;-81
2024/03/19 10:12:24;;;;;;;6.93;4.22;;;8.40;99.90;;;6.90;57.19;102125.47;4877725;29;20044;-81
2024/03/19 10:14:55;;;;;;;9.45;5.60;;;8.40;99.90;;;7.04;57.23;102122.75;4885593;28;20047;-81
2024/03/19 10:17:22;;;;;;;7.80;4.63;;;;;;;7.34;57.74;102124.19;4883089;28;20571;-82